createdAt,value
2022-10-01T00:01:19.980Z,15.77
2022-10-01T00:03:49.329Z,14.40
2022-10-01T00:06:20.050Z,14.32
2022-10-01T00:08:51.193Z,14.23
2022-10-01T00:11:21.235Z,13.13
2022-10-01T00:13:50.315Z,12.88
2022-10-01T00:16:20.547Z,12.40
2022-10-01T00:18:50.641Z,13.05
2022-10-01T00:21:21.193Z,13.82
2022-10-01T00:23:49.312Z,13.80
2022-10-01T00:26:20.912Z,14.27
2022-10-01T00:28:53.804Z,13.60
2022-10-01T00:31:21.897Z,13.02
2022-10-01T00:33:53.159Z,12.95
2022-10-01T00:36:21.356Z,14.40
2022-10-01T00:38:49.307Z,14.25
2022-10-01T00:41:18.662Z,14.90
2022-10-01T00:43:48.438Z,13.13
2022-10-01T00:46:21.199Z,14.18
2022-10-01T00:48:58.148Z,14.80
2022-10-01T00:51:29.608Z,15.93
2022-10-01T00:54:05.254Z,15.05
2022-10-01T00:56:34.187Z,15.13
2022-10-01T00:59:02.904Z,14.63
2022-10-01T01:01:31.263Z,14.70
2022-10-01T01:04:00.967Z,15.60
2022-10-01T01:06:29.102Z,14.63
2022-10-01T01:08:57.740Z,13.68
2022-10-01T01:11:33.189Z,15.90
2022-10-01T01:14:07.053Z,16.08
2022-10-01T01:16:39.840Z,15.15
2022-10-01T01:19:21.557Z,14.45
2022-10-01T01:21:53.928Z,15.20
2022-10-01T01:24:48.370Z,15.00
2022-10-01T01:27:26.682Z,13.57
2022-10-01T01:30:04.173Z,15.07
2022-10-01T01:32:42.763Z,15.23
2022-10-01T01:35:12.493Z,15.20
2022-10-01T01:37:43.831Z,13.70
2022-10-01T01:40:13.466Z,16.67
2022-10-01T01:42:44.958Z,16.00
2022-10-01T01:45:18.089Z,17.00
2022-10-01T01:47:46.946Z,16.05
2022-10-01T01:50:17.643Z,16.90
2022-10-01T01:52:45.936Z,15.10
2022-10-01T01:55:14.535Z,14.52
2022-10-01T01:57:45.226Z,15.00
2022-10-01T02:00:14.856Z,13.85
2022-10-01T02:02:50.187Z,13.85
2022-10-01T02:05:20.948Z,15.60
2022-10-01T02:08:08.667Z,13.77
2022-10-01T02:10:50.018Z,14.48
2022-10-01T02:13:30.587Z,16.27
2022-10-01T02:16:07.247Z,15.43
2022-10-01T02:18:42.095Z,16.40
2022-10-01T02:21:17.268Z,18.73
2022-10-01T02:23:53.245Z,16.40
2022-10-01T02:26:23.912Z,16.85
2022-10-01T02:28:55.823Z,17.30
2022-10-01T02:31:25.273Z,16.92
2022-10-01T02:33:54.898Z,16.02
2022-10-01T02:36:25.050Z,17.38
2022-10-01T02:38:55.739Z,17.08
2022-10-01T02:41:29.687Z,18.95
2022-10-01T02:44:01.342Z,18.10
2022-10-01T02:46:42.216Z,19.65
2022-10-01T02:49:13.255Z,19.35
2022-10-01T02:51:50.592Z,17.58
2022-10-01T02:54:24.344Z,17.02
2022-10-01T02:57:09.931Z,18.48
2022-10-01T02:59:37.948Z,15.35
2022-10-01T03:02:07.444Z,18.52
2022-10-01T03:04:35.435Z,17.70
2022-10-01T03:07:04.497Z,15.77
2022-10-01T03:09:32.702Z,17.35
2022-10-01T03:12:01.008Z,16.27
2022-10-01T03:14:29.558Z,14.77
2022-10-01T03:16:57.484Z,16.58
2022-10-01T03:19:26.811Z,15.85
2022-10-01T03:21:56.397Z,13.93
2022-10-01T03:24:24.320Z,15.38
2022-10-01T03:26:52.249Z,15.90
2022-10-01T03:29:20.155Z,14.65
2022-10-01T03:31:48.296Z,14.88
2022-10-01T03:34:16.318Z,14.95
2022-10-01T03:36:45.675Z,14.82
2022-10-01T03:39:14.528Z,14.43
2022-10-01T03:41:42.469Z,14.15
2022-10-01T03:44:10.370Z,14.55
2022-10-01T03:46:38.332Z,14.70
2022-10-01T03:49:06.666Z,15.85
2022-10-01T03:51:36.260Z,13.70
2022-10-01T03:54:06.988Z,14.15
2022-10-01T03:56:35.526Z,13.38
2022-10-01T03:59:03.553Z,13.75
2022-10-01T04:01:31.993Z,13.65
2022-10-01T04:04:00.223Z,13.43
2022-10-01T04:06:28.170Z,13.32
2022-10-01T04:08:56.141Z,13.00
2022-10-01T04:11:25.742Z,14.77
2022-10-01T04:13:53.668Z,14.32
2022-10-01T04:16:23.932Z,14.05
2022-10-01T04:18:51.980Z,13.25
2022-10-01T04:21:20.553Z,14.80
2022-10-01T04:23:49.863Z,12.80
2022-10-01T04:26:18.942Z,13.95
2022-10-01T04:28:48.411Z,13.63
2022-10-01T04:31:25.850Z,12.50
2022-10-01T04:33:55.121Z,12.40
2022-10-01T04:36:23.872Z,14.13
2022-10-01T04:38:54.663Z,12.50
2022-10-01T04:41:25.436Z,12.27
2022-10-01T04:43:54.692Z,14.02
2022-10-01T04:46:22.623Z,12.90
2022-10-01T04:48:50.666Z,13.90
2022-10-01T04:51:19.047Z,13.00
2022-10-01T04:53:49.221Z,13.38
2022-10-01T04:56:17.676Z,14.77
2022-10-01T04:58:45.683Z,15.38
2022-10-01T05:01:14.939Z,14.88
2022-10-01T05:03:42.863Z,15.60
2022-10-01T05:06:10.763Z,14.82
2022-10-01T05:08:39.212Z,14.60
2022-10-01T05:11:07.364Z,14.75
2022-10-01T05:13:35.326Z,15.05
2022-10-01T05:16:05.448Z,14.02
2022-10-01T05:18:34.865Z,13.82
2022-10-01T05:21:08.191Z,15.48
2022-10-01T05:23:36.116Z,15.95
2022-10-01T05:26:05.752Z,14.52
2022-10-01T05:28:35.560Z,15.98
2022-10-01T05:31:05.514Z,15.88
2022-10-01T05:33:37.720Z,16.55
2022-10-01T05:36:07.764Z,15.73
2022-10-01T05:38:37.124Z,15.32
2022-10-01T05:41:05.102Z,16.25
2022-10-01T05:43:33.243Z,15.10
2022-10-01T05:46:02.568Z,16.35
2022-10-01T05:48:37.006Z,16.42
2022-10-01T05:51:08.204Z,16.00
2022-10-01T05:53:37.559Z,15.40
2022-10-01T05:56:05.907Z,14.63
2022-10-01T05:58:35.390Z,16.02
2022-10-01T06:01:04.050Z,15.27
2022-10-01T06:03:32.117Z,15.70
2022-10-01T06:06:00.726Z,16.25
2022-10-01T06:08:30.001Z,15.13
2022-10-01T06:11:01.404Z,14.98
2022-10-01T06:13:29.776Z,15.82
2022-10-01T06:15:57.718Z,15.15
2022-10-01T06:18:27.219Z,14.25
2022-10-01T06:20:55.154Z,14.57
2022-10-01T06:23:23.142Z,16.85
2022-10-01T06:25:52.363Z,16.35
2022-10-01T06:28:22.766Z,15.90
2022-10-01T06:30:50.727Z,16.25
2022-10-01T06:33:19.029Z,15.70
2022-10-01T06:35:49.548Z,16.02
2022-10-01T06:38:19.784Z,15.05
2022-10-01T06:40:54.152Z,15.50
2022-10-01T06:43:22.597Z,15.30
2022-10-01T06:45:50.593Z,16.75
2022-10-01T06:48:19.929Z,16.10
2022-10-01T06:50:49.214Z,17.58
2022-10-01T06:53:17.648Z,17.42
2022-10-01T06:55:46.416Z,17.45
2022-10-01T06:58:17.516Z,17.90
2022-10-01T07:00:45.711Z,16.85
2022-10-01T07:03:16.369Z,17.67
2022-10-01T07:05:44.679Z,16.85
2022-10-01T07:08:13.060Z,17.25
2022-10-01T07:10:44.009Z,17.73
2022-10-01T07:13:16.010Z,17.35
2022-10-01T07:15:46.297Z,17.92
2022-10-01T07:18:17.781Z,18.00
2022-10-01T07:20:45.981Z,16.25
2022-10-01T07:23:15.547Z,17.17
2022-10-01T07:25:44.886Z,17.48
2022-10-01T07:28:18.140Z,16.38
2022-10-01T07:30:48.461Z,16.75
2022-10-01T07:33:19.129Z,17.30
2022-10-01T07:35:48.105Z,17.35
2022-10-01T07:38:16.583Z,16.60
2022-10-01T07:40:44.524Z,17.85
2022-10-01T07:43:14.565Z,18.83
2022-10-01T07:45:46.995Z,17.35
2022-10-01T07:48:15.874Z,15.93
2022-10-01T07:50:45.067Z,16.13
2022-10-01T07:53:13.694Z,16.95
2022-10-01T07:55:41.606Z,16.13
2022-10-01T07:58:10.968Z,16.50
2022-10-01T08:00:39.776Z,17.23
2022-10-01T08:03:12.008Z,17.20
2022-10-01T08:05:42.106Z,17.13
2022-10-01T08:08:10.628Z,17.42
2022-10-01T08:10:39.818Z,17.58
2022-10-01T08:13:14.412Z,18.90
2022-10-01T08:15:43.358Z,16.67
2022-10-01T08:18:13.043Z,17.23
2022-10-01T08:20:41.203Z,16.38
2022-10-01T08:23:11.293Z,16.60
2022-10-01T08:25:40.084Z,17.65
2022-10-01T08:28:08.362Z,17.83
2022-10-01T08:30:39.549Z,18.20
2022-10-01T08:33:09.661Z,16.67
2022-10-01T08:35:41.730Z,17.02
2022-10-01T08:38:10.933Z,18.08
2022-10-01T08:40:46.481Z,19.55
2022-10-01T08:43:31.105Z,18.35
2022-10-01T08:46:03.948Z,17.98
2022-10-01T08:48:44.498Z,17.50
2022-10-01T08:51:19.239Z,17.85
2022-10-01T08:53:53.989Z,18.38
2022-10-01T08:56:25.673Z,17.55
2022-10-01T08:58:58.790Z,17.42
2022-10-01T09:01:29.952Z,18.83
2022-10-01T09:04:00.709Z,16.88
2022-10-01T09:06:30.466Z,16.70
2022-10-01T09:09:13.466Z,15.02
2022-10-01T09:12:05.473Z,16.50
2022-10-01T09:14:52.049Z,14.25
2022-10-01T09:17:33.091Z,15.38
2022-10-01T09:20:12.114Z,14.43
2022-10-01T09:22:42.817Z,14.70
2022-10-01T09:25:18.002Z,16.08
2022-10-01T09:27:47.071Z,14.35
2022-10-01T09:30:18.315Z,15.40
2022-10-01T09:32:51.680Z,15.20
2022-10-01T09:35:35.010Z,13.95
2022-10-01T09:38:10.769Z,13.95
2022-10-01T09:40:46.314Z,12.90
2022-10-01T09:43:14.422Z,13.07
2022-10-01T09:45:42.758Z,12.90
2022-10-01T09:48:20.646Z,11.48
2022-10-01T09:50:56.383Z,10.98
2022-10-01T09:53:31.497Z,11.38
2022-10-01T09:56:05.967Z,10.18
2022-10-01T09:58:38.581Z,10.85
2022-10-01T10:01:18.726Z,11.15
2022-10-01T10:03:55.984Z,11.10
2022-10-01T10:06:29.272Z,10.48
2022-10-01T10:09:00.277Z,10.40
2022-10-01T10:11:31.440Z,8.23
2022-10-01T10:14:02.325Z,7.97
2022-10-01T10:16:35.572Z,7.07
2022-10-01T10:19:06.273Z,7.80
2022-10-01T10:21:35.910Z,8.82
2022-10-01T10:24:08.016Z,9.35
2022-10-01T10:26:39.365Z,9.15
2022-10-01T10:29:25.225Z,9.75
2022-10-01T10:31:55.456Z,8.27
2022-10-01T10:34:31.818Z,8.27
2022-10-01T10:37:04.938Z,7.72
2022-10-01T10:39:37.699Z,8.18
2022-10-01T10:42:07.144Z,8.05
2022-10-01T10:44:39.631Z,9.25
2022-10-01T10:47:11.262Z,8.13
2022-10-01T10:49:45.693Z,8.70
2022-10-01T10:52:23.572Z,8.02
2022-10-01T10:54:53.704Z,8.52
2022-10-01T10:57:27.706Z,8.50
2022-10-01T10:59:57.344Z,8.05
2022-10-01T11:02:26.492Z,7.90
2022-10-01T11:04:56.259Z,6.05
2022-10-01T11:07:28.695Z,5.90
2022-10-01T11:10:16.243Z,6.72
2022-10-01T11:12:58.940Z,7.22
2022-10-01T11:15:45.365Z,6.68
2022-10-01T11:18:42.715Z,6.47
2022-10-01T11:21:31.579Z,6.85
2022-10-01T11:24:11.256Z,7.03
2022-10-01T11:26:49.649Z,6.88
2022-10-01T11:29:32.767Z,7.10
2022-10-01T11:32:11.058Z,6.38
2022-10-01T11:34:55.479Z,7.05
2022-10-01T11:37:37.346Z,6.82
2022-10-01T11:40:15.389Z,6.32
2022-10-01T11:42:46.730Z,6.88
2022-10-01T11:45:23.156Z,6.13
2022-10-01T11:47:55.295Z,6.70
2022-10-01T11:50:27.093Z,6.75
2022-10-01T11:53:01.585Z,7.22
2022-10-01T11:55:52.474Z,5.60
2022-10-01T11:58:57.571Z,8.02
2022-10-01T12:01:34.327Z,8.45
2022-10-01T12:04:08.127Z,7.72
2022-10-01T12:06:41.693Z,8.23
2022-10-01T12:09:15.201Z,8.15
2022-10-01T12:11:49.304Z,7.68
2022-10-01T12:14:21.918Z,6.97
2022-10-01T12:16:55.794Z,8.18
2022-10-01T12:19:30.012Z,7.20
2022-10-01T12:22:01.483Z,7.30
2022-10-01T12:24:32.953Z,7.15
2022-10-01T12:27:30.205Z,7.68
2022-10-01T12:30:04.116Z,7.97
2022-10-01T12:32:49.549Z,7.63
2022-10-01T12:35:35.657Z,7.35
2022-10-01T12:38:17.947Z,8.50
2022-10-01T12:40:48.411Z,8.75
2022-10-01T12:43:37.413Z,8.30
2022-10-01T12:46:18.289Z,9.30
2022-10-01T12:48:57.928Z,10.73
2022-10-01T12:51:38.978Z,10.38
2022-10-01T12:54:22.049Z,11.70
2022-10-01T12:56:57.329Z,15.07
2022-10-01T12:59:41.898Z,13.23
2022-10-01T13:02:28.671Z,14.40
2022-10-01T13:05:20.084Z,14.35
2022-10-01T13:08:00.917Z,13.23
2022-10-01T13:10:48.707Z,12.50
2022-10-01T13:13:23.130Z,14.02
2022-10-01T13:15:56.079Z,14.20
2022-10-01T13:18:35.871Z,14.77
2022-10-01T13:21:11.959Z,14.25
2022-10-01T13:23:47.158Z,15.32
2022-10-01T13:26:19.393Z,14.93
2022-10-01T13:29:04.048Z,16.15
2022-10-01T13:31:42.957Z,15.73
2022-10-01T13:34:38.086Z,16.42
2022-10-01T13:37:17.286Z,15.98
2022-10-01T13:39:46.329Z,15.65
2022-10-01T13:42:38.480Z,16.08
2022-10-01T13:45:10.988Z,15.98
2022-10-01T13:47:41.152Z,15.65
2022-10-01T13:50:23.711Z,15.40
2022-10-01T13:52:52.146Z,16.20
2022-10-01T13:55:28.931Z,13.85
2022-10-01T13:58:05.086Z,15.23
2022-10-01T14:00:33.158Z,15.30
2022-10-01T14:03:04.974Z,14.13
2022-10-01T14:05:38.272Z,15.60
2022-10-01T14:08:15.410Z,13.40
2022-10-01T14:11:07.714Z,13.77
2022-10-01T14:14:01.239Z,13.07
2022-10-01T14:16:30.018Z,13.35
2022-10-01T14:19:00.644Z,14.30
2022-10-01T14:21:41.868Z,13.73
2022-10-01T14:24:23.725Z,13.23
2022-10-01T14:26:55.551Z,13.10
2022-10-01T14:29:42.169Z,12.10
2022-10-01T14:32:23.998Z,12.73
2022-10-01T14:35:11.777Z,13.48
2022-10-01T14:37:41.750Z,12.05
2022-10-01T14:40:17.538Z,12.75
2022-10-01T14:42:45.602Z,13.95
2022-10-01T14:45:18.910Z,11.43
2022-10-01T14:47:48.819Z,12.32
2022-10-01T14:50:23.046Z,13.65
2022-10-01T14:52:54.883Z,13.18
2022-10-01T14:55:24.637Z,11.65
2022-10-01T14:57:55.117Z,12.20
2022-10-01T15:00:26.676Z,13.43
2022-10-01T15:03:04.681Z,15.50
2022-10-01T15:05:34.461Z,14.15
2022-10-01T15:08:13.284Z,14.77
2022-10-01T15:10:42.754Z,14.80
2022-10-01T15:13:18.257Z,15.38
2022-10-01T15:15:46.328Z,13.82
2022-10-01T15:18:18.326Z,14.63
2022-10-01T15:20:58.737Z,13.80
2022-10-01T15:23:30.334Z,12.20
2022-10-01T15:25:59.587Z,14.05
2022-10-01T15:28:31.932Z,13.25
2022-10-01T15:31:02.366Z,13.05
2022-10-01T15:33:32.947Z,13.60
2022-10-01T15:36:03.706Z,13.02
2022-10-01T15:38:34.472Z,14.27
2022-10-01T15:41:30.065Z,16.58
2022-10-01T15:43:53.170Z,14.30
2022-10-01T15:46:29.160Z,14.73
2022-10-01T15:49:23.080Z,13.85
2022-10-01T15:52:14.073Z,14.05
2022-10-01T15:54:46.120Z,14.52
2022-10-01T15:57:20.219Z,14.45
2022-10-01T15:59:49.399Z,14.07
2022-10-01T16:02:21.281Z,14.27
2022-10-01T16:04:56.105Z,13.38
2022-10-01T16:07:30.642Z,13.73
2022-10-01T16:10:01.190Z,12.48
2022-10-01T16:12:32.756Z,12.52
2022-10-01T16:15:03.390Z,14.25
2022-10-01T16:17:34.364Z,14.27
2022-10-01T16:20:18.497Z,14.60
2022-10-01T16:22:46.466Z,18.10
2022-10-01T16:28:29.028Z,19.50
2022-10-01T16:30:57.426Z,13.32
2022-10-01T16:33:26.549Z,12.70
2022-10-01T16:36:08.224Z,13.70
2022-10-01T16:38:36.156Z,12.60
2022-10-01T16:41:05.442Z,13.68
2022-10-01T16:43:34.741Z,14.00
2022-10-01T16:46:05.280Z,14.27
2022-10-01T16:48:33.203Z,14.25
2022-10-01T16:51:01.259Z,19.77
2022-10-01T16:53:29.563Z,28.02
2022-10-01T16:55:58.071Z,27.33
2022-10-01T16:58:26.794Z,27.80
2022-10-01T17:00:56.222Z,26.80
2022-10-01T17:03:24.451Z,26.42
2022-10-01T17:05:52.562Z,30.40
2022-10-01T17:08:20.757Z,36.33
2022-10-01T17:10:53.209Z,25.98
2022-10-01T17:13:21.161Z,34.20
2022-10-01T17:15:50.655Z,33.17
2022-10-01T17:18:20.769Z,32.90
2022-10-01T17:20:48.996Z,35.83
2022-10-01T17:23:18.717Z,32.58
2022-10-01T17:25:47.275Z,26.48
2022-10-01T17:28:21.163Z,33.45
2022-10-01T17:30:50.198Z,30.13
2022-10-01T17:33:20.313Z,23.23
2022-10-01T17:35:51.647Z,26.65
2022-10-01T17:38:21.960Z,21.83
2022-10-01T17:40:55.435Z,24.65
2022-10-01T17:43:24.557Z,22.00
2022-10-01T17:45:57.414Z,23.05
2022-10-01T17:48:30.006Z,18.27
2022-10-01T17:51:03.333Z,22.15
2022-10-01T17:53:36.122Z,20.25
2022-10-01T17:56:11.022Z,20.45
2022-10-01T17:58:45.038Z,19.88
2022-10-01T18:01:21.158Z,19.95
2022-10-01T18:03:54.763Z,18.45
2022-10-01T18:06:22.845Z,16.50
2022-10-01T18:08:56.548Z,15.65
2022-10-01T18:11:25.772Z,15.20
2022-10-01T18:13:53.887Z,14.82
2022-10-01T18:16:22.476Z,13.95
2022-10-01T18:21:45.579Z,12.02
2022-10-01T18:24:15.078Z,12.30
2022-10-01T18:26:43.047Z,12.00
2022-10-01T18:29:12.538Z,11.93
2022-10-01T18:31:44.651Z,10.88
2022-10-01T18:34:21.556Z,11.15
2022-10-01T18:36:56.852Z,10.88
2022-10-01T18:39:32.529Z,10.80
2022-10-01T18:42:01.103Z,9.82
2022-10-01T18:44:29.099Z,11.35
2022-10-01T18:47:07.504Z,10.73
2022-10-01T18:49:54.967Z,9.55
2022-10-01T18:52:31.542Z,9.13
2022-10-01T18:55:21.748Z,9.18
2022-10-01T18:58:04.167Z,11.18
2022-10-01T19:00:43.279Z,10.60
2022-10-01T19:03:32.408Z,13.93
2022-10-01T19:06:26.031Z,8.48
2022-10-01T19:09:09.784Z,5.63
2022-10-01T19:11:56.281Z,5.00
2022-10-01T19:14:50.795Z,4.70
2022-10-01T19:17:35.155Z,3.47
2022-10-01T19:20:15.583Z,3.72
2022-10-01T19:22:59.358Z,4.13
2022-10-01T19:25:31.474Z,3.05
2022-10-01T19:28:11.717Z,3.08
2022-10-01T19:30:46.853Z,2.83
2022-10-01T19:33:21.066Z,3.10
2022-10-01T19:35:53.149Z,3.38
2022-10-01T19:38:29.439Z,3.58
2022-10-01T19:41:01.111Z,3.40
2022-10-01T19:43:34.442Z,3.28
2022-10-01T19:46:10.456Z,3.95
2022-10-01T19:48:49.380Z,3.47
2022-10-01T19:51:25.088Z,2.05
2022-10-01T19:54:02.086Z,2.28
2022-10-01T19:56:31.899Z,2.53
2022-10-01T19:59:03.119Z,1.70
2022-10-01T20:01:39.842Z,1.60
2022-10-01T20:04:15.777Z,1.92
2022-10-01T20:06:48.303Z,2.17
2022-10-01T20:09:28.946Z,1.23
2022-10-01T20:12:07.009Z,1.05
2022-10-01T20:15:03.943Z,1.30
2022-10-01T20:17:42.067Z,1.25
2022-10-01T20:20:19.349Z,1.67
2022-10-01T20:23:02.152Z,1.83
2022-10-01T20:25:42.696Z,1.30
2022-10-01T20:28:17.273Z,1.90
2022-10-01T20:31:01.152Z,2.55
2022-10-01T20:33:38.782Z,1.55
2022-10-01T20:36:15.318Z,1.85
2022-10-01T20:38:50.693Z,1.70
2022-10-01T20:41:23.860Z,1.80
2022-10-01T20:43:56.351Z,1.80
2022-10-01T20:46:32.249Z,2.40
2022-10-01T20:49:05.286Z,1.83
2022-10-01T20:51:40.157Z,2.05
2022-10-01T20:54:12.019Z,1.88
2022-10-01T20:56:45.391Z,2.40
2022-10-01T20:59:19.240Z,2.58
2022-10-01T21:01:54.591Z,3.00
2022-10-01T21:04:29.915Z,3.20
2022-10-01T21:07:02.847Z,2.60
2022-10-01T21:09:35.749Z,2.47
2022-10-01T21:12:11.203Z,2.58
2022-10-01T21:14:43.088Z,2.65
2022-10-01T21:17:36.603Z,2.97
2022-10-01T21:20:41.992Z,2.60
2022-10-01T21:23:21.469Z,2.47
2022-10-01T21:26:04.249Z,2.53
2022-10-01T21:28:48.342Z,3.17
2022-10-01T21:31:29.916Z,3.25
2022-10-01T21:34:03.402Z,3.45
2022-10-01T21:36:38.268Z,2.70
2022-10-01T21:39:12.629Z,2.78
2022-10-01T21:41:56.036Z,3.28
2022-10-01T21:44:46.348Z,3.22
2022-10-01T21:47:22.305Z,3.10
2022-10-01T21:50:00.973Z,4.00
2022-10-01T21:52:41.890Z,3.20
2022-10-01T21:55:33.080Z,3.78
2022-10-01T21:58:14.106Z,3.47
2022-10-01T22:00:44.518Z,3.83
2022-10-01T22:03:20.039Z,3.75
2022-10-01T22:05:54.597Z,2.75
2022-10-01T22:08:35.569Z,3.25
2022-10-01T22:11:09.998Z,3.50
2022-10-01T22:13:42.307Z,2.75
2022-10-01T22:16:15.290Z,4.25
2022-10-01T22:18:49.465Z,3.55
2022-10-01T22:21:24.418Z,3.00
2022-10-01T22:23:58.545Z,3.15
2022-10-01T22:26:30.734Z,3.83
2022-10-01T22:29:01.865Z,3.10
2022-10-01T22:31:35.013Z,3.78
2022-10-01T22:34:07.330Z,3.70
2022-10-01T22:36:41.442Z,3.70
2022-10-01T22:39:16.391Z,3.15
2022-10-01T22:41:47.721Z,3.05
2022-10-01T22:44:17.141Z,3.97
2022-10-01T22:47:02.159Z,2.90
2022-10-01T22:49:46.871Z,3.30
2022-10-01T22:52:24.909Z,2.70
2022-10-01T22:55:05.543Z,2.55
2022-10-01T22:57:58.889Z,3.03
2022-10-01T23:00:27.141Z,2.47
2022-10-01T23:03:08.782Z,2.80
2022-10-01T23:05:51.602Z,3.90
2022-10-01T23:08:26.684Z,2.63
2022-10-01T23:11:04.666Z,2.55
2022-10-01T23:13:43.691Z,3.42
2022-10-01T23:16:21.334Z,2.58
2022-10-01T23:18:59.890Z,2.92
2022-10-01T23:21:37.916Z,2.83
2022-10-01T23:24:17.890Z,2.75
2022-10-01T23:26:56.667Z,3.30
2022-10-01T23:30:11.588Z,3.08
2022-10-01T23:32:51.098Z,3.17
2022-10-01T23:35:21.537Z,3.25
2022-10-01T23:38:05.100Z,3.40
2022-10-01T23:40:37.481Z,3.80
2022-10-01T23:43:12.013Z,4.00
2022-10-01T23:45:45.618Z,3.17
2022-10-01T23:48:19.020Z,3.25
2022-10-01T23:50:56.098Z,3.60
2022-10-01T23:53:28.722Z,3.75
2022-10-01T23:56:21.097Z,3.28
2022-10-01T23:58:55.311Z,3.28
